Time;durP1;ratioP1;P1;durP2;ratioP2;P2;SDS_P1;SDS_P2;PMS_P1;PMS_P2;Temp;Humidity;BMP_temperature;BMP_pressure;BME280_temperature;BME280_humidity;BME280_pressure;Samples;Min_cycle;Max_cycle;Signal;HPM_P1;HPM_P2
2022/12/12 05:30:33;;;;;;;;;20.50;16.75;;;;;;;;5904045;22;45179;-69
2022/12/12 05:32:59;;;;;;;;;33.50;24.75;;;;;;;;5047579;28;45415;-68
2022/12/12 05:35:24;;;;;;;;;24.50;24.50;;;;;;;;5047577;28;45378;-68
2022/12/12 05:37:49;;;;;;;;;29.50;25.50;;;;;;;;5056324;28;45308;-68
2022/12/12 05:40:15;;;;;;;;;27.75;27.25;;;;;;;;5055045;28;45145;-68
2022/12/12 05:42:40;;;;;;;;;35.25;27.25;;;;;;;;5056805;28;45446;-68
2022/12/12 05:45:07;;;;;;;;;33.00;25.50;;;;;;;;5043852;28;45343;-68
2022/12/12 05:47:32;;;;;;;;;33.50;27.75;;;;;;;;5052892;28;45321;-69
2022/12/12 05:49:57;;;;;;;;;38.50;27.50;;;;;;;;5043588;28;45284;-68
2022/12/12 05:52:23;;;;;;;;;31.75;26.50;;;;;;;;5056128;28;46040;-68
2022/12/12 05:54:48;;;;;;;;;36.75;28.75;;;;;;;;5055253;28;45330;-68
2022/12/12 05:57:13;;;;;;;;;34.50;25.75;;;;;;;;5057983;28;45418;-66
2022/12/12 05:59:38;;;;;;;;;37.00;25.00;;;;;;;;5056069;28;45593;-66
2022/12/12 06:02:03;;;;;;;;;31.50;28.25;;;;;;;;5045128;28;46011;-69
2022/12/12 06:04:29;;;;;;;;;41.75;30.50;;;;;;;;5046611;28;45339;-66
2022/12/12 06:06:54;;;;;;;;;33.25;30.00;;;;;;;;5046526;28;45367;-66
2022/12/12 06:09:19;;;;;;;;;40.50;29.75;;;;;;;;5049879;28;45333;-67
2022/12/12 06:11:44;;;;;;;;;40.50;36.50;;;;;;;;5045008;28;46135;-67
2022/12/12 06:14:09;;;;;;;;;40.00;35.75;;;;;;;;5043999;28;45231;-66
2022/12/12 06:16:35;;;;;;;;;37.25;28.00;;;;;;;;5055169;28;45655;-67
2022/12/12 06:19:01;;;;;;;;;39.50;27.25;;;;;;;;5045240;28;45236;-67
2022/12/12 06:21:26;;;;;;;;;37.00;30.00;;;;;;;;5047203;28;45359;-67
2022/12/12 06:23:52;;;;;;;;;40.00;29.00;;;;;;;;5047725;28;45217;-67
2022/12/12 06:26:17;;;;;;;;;28.75;25.75;;;;;;;;5048406;28;45812;-67
2022/12/12 06:28:42;;;;;;;;;34.25;32.00;;;;;;;;5047575;28;45366;-67
2022/12/12 06:34:10;;;;;;;;;40.50;30.75;;;;;;;;5048766;28;45307;-67
2022/12/12 06:36:35;;;;;;;;;39.25;31.75;;;;;;;;5049948;28;45327;-67
2022/12/12 06:39:01;;;;;;;;;32.50;31.50;;;;;;;;5051904;28;45522;-67
2022/12/12 06:41:28;;;;;;;;;33.50;31.00;;;;;;;;5055075;28;45292;-69
2022/12/12 06:43:53;;;;;;;;;41.25;30.00;;;;;;;;5060449;28;45310;-67
2022/12/12 06:46:20;;;;;;;;;34.00;26.50;;;;;;;;5052633;28;45362;-67
2022/12/12 06:48:45;;;;;;;;;44.50;35.75;;;;;;;;5049116;28;45358;-68
2022/12/12 06:51:14;;;;;;;;;41.25;31.75;;;;;;;;5059718;28;45398;-67
2022/12/12 06:53:39;;;;;;;;;37.50;30.75;;;;;;;;5060528;28;45437;-68
2022/12/12 06:56:08;;;;;;;;;35.25;31.00;;;;;;;;5058614;28;45640;-68
2022/12/12 06:58:34;;;;;;;;;39.25;35.50;;;;;;;;5051341;28;45371;-68
2022/12/12 07:00:59;;;;;;;;;34.50;28.00;;;;;;;;5048289;28;45457;-66
2022/12/12 07:03:24;;;;;;;;;39.50;32.25;;;;;;;;5051945;28;45437;-68
2022/12/12 07:05:49;;;;;;;;;39.00;29.75;;;;;;;;5045383;28;45383;-69
2022/12/12 07:08:15;;;;;;;;;44.25;36.00;;;;;;;;5059490;28;45452;-69
2022/12/12 07:10:40;;;;;;;;;41.25;31.00;;;;;;;;5048916;28;45483;-68
2022/12/12 07:13:05;;;;;;;;;38.00;31.00;;;;;;;;5056596;28;45369;-69
2022/12/12 07:15:31;;;;;;;;;40.00;31.75;;;;;;;;5053864;28;45450;-68
2022/12/12 07:17:56;;;;;;;;;42.00;31.50;;;;;;;;5058001;28;45353;-68
2022/12/12 07:20:21;;;;;;;;;41.25;34.25;;;;;;;;5041429;28;45985;-69
2022/12/12 07:22:47;;;;;;;;;36.50;28.00;;;;;;;;5041187;28;45301;-68
2022/12/12 07:25:12;;;;;;;;;36.00;33.00;;;;;;;;5056665;28;45569;-68
2022/12/12 07:27:37;;;;;;;;;46.25;37.00;;;;;;;;5056256;28;45251;-68
2022/12/12 07:30:03;;;;;;;;;36.25;31.50;;;;;;;;5041379;28;45488;-69
2022/12/12 07:32:28;;;;;;;;;39.25;29.75;;;;;;;;5040952;28;45630;-67
2022/12/12 07:34:53;;;;;;;;;38.00;27.50;;;;;;;;5041437;28;45572;-66
2022/12/12 07:37:18;;;;;;;;;46.25;32.75;;;;;;;;5047620;28;46138;-66
2022/12/12 07:39:44;;;;;;;;;42.25;30.75;;;;;;;;5045458;28;46021;-65
2022/12/12 07:42:09;;;;;;;;;32.00;28.25;;;;;;;;5053643;28;45377;-66
2022/12/12 07:44:34;;;;;;;;;40.75;36.00;;;;;;;;5040952;28;45718;-66
2022/12/12 07:46:59;;;;;;;;;41.50;32.75;;;;;;;;5045801;28;45326;-68
2022/12/12 07:49:24;;;;;;;;;38.25;34.50;;;;;;;;5044314;28;46284;-66
2022/12/12 07:51:50;;;;;;;;;46.00;36.75;;;;;;;;5047801;28;45295;-67
2022/12/12 07:54:15;;;;;;;;;46.25;31.50;;;;;;;;5047183;28;45486;-67
2022/12/12 07:56:40;;;;;;;;;44.75;32.75;;;;;;;;5049159;28;45425;-66
2022/12/12 07:59:05;;;;;;;;;52.00;40.75;;;;;;;;5052348;28;45362;-67
2022/12/12 08:01:31;;;;;;;;;42.50;36.75;;;;;;;;5052891;28;45279;-66
2022/12/12 08:03:57;;;;;;;;;40.75;33.75;;;;;;;;5056589;28;45418;-67
2022/12/12 08:06:23;;;;;;;;;43.00;34.50;;;;;;;;5053115;28;45471;-67
2022/12/12 08:08:48;;;;;;;;;42.50;29.75;;;;;;;;5062619;28;46179;-67
2022/12/12 08:11:15;;;;;;;;;44.00;35.25;;;;;;;;5055359;27;45544;-67
2022/12/12 08:13:40;;;;;;;;;37.50;32.25;;;;;;;;5059379;28;45540;-67
2022/12/12 08:16:07;;;;;;;;;49.50;39.00;;;;;;;;5053791;28;45691;-67
2022/12/12 08:18:32;;;;;;;;;50.50;36.75;;;;;;;;5057049;28;45419;-67
2022/12/12 08:20:58;;;;;;;;;55.50;37.75;;;;;;;;5063234;28;45512;-67
2022/12/12 08:23:23;;;;;;;;;42.25;37.75;;;;;;;;5048993;28;45252;-66
2022/12/12 08:25:48;;;;;;;;;39.50;35.75;;;;;;;;5059262;28;45331;-65
2022/12/12 08:28:13;;;;;;;;;40.50;32.25;;;;;;;;5047635;28;46186;-65
2022/12/12 08:30:38;;;;;;;;;46.50;40.00;;;;;;;;5040830;28;45467;-65
2022/12/12 08:33:04;;;;;;;;;40.25;36.50;;;;;;;;5051355;28;45438;-65
2022/12/12 08:35:30;;;;;;;;;42.00;33.50;;;;;;;;5047825;28;45473;-65
2022/12/12 08:37:55;;;;;;;;;39.75;35.50;;;;;;;;5039257;28;45397;-65
2022/12/12 08:40:20;;;;;;;;;38.00;32.25;;;;;;;;5050196;28;45421;-65
2022/12/12 08:42:46;;;;;;;;;39.00;33.00;;;;;;;;5050433;28;46104;-65
2022/12/12 08:45:11;;;;;;;;;42.00;34.50;;;;;;;;5049611;28;45493;-64
2022/12/12 08:47:36;;;;;;;;;38.50;33.25;;;;;;;;5043609;28;46326;-64
2022/12/12 08:50:02;;;;;;;;;42.50;36.25;;;;;;;;5045602;28;45505;-65
2022/12/12 08:52:27;;;;;;;;;45.25;35.25;;;;;;;;5054861;28;45328;-64
2022/12/12 08:54:52;;;;;;;;;42.75;34.75;;;;;;;;5049948;28;45299;-64
2022/12/12 08:57:17;;;;;;;;;44.25;35.75;;;;;;;;5053433;28;45880;-64
2022/12/12 08:59:43;;;;;;;;;40.00;33.50;;;;;;;;5053637;28;45375;-64
2022/12/12 09:02:10;;;;;;;;;44.75;34.00;;;;;;;;5050255;28;45357;-64
2022/12/12 09:04:35;;;;;;;;;44.00;36.50;;;;;;;;5050061;28;45577;-64
2022/12/12 09:07:01;;;;;;;;;40.50;33.75;;;;;;;;5050994;28;46000;-64
2022/12/12 09:09:26;;;;;;;;;50.75;39.25;;;;;;;;5049610;28;45283;-64
2022/12/12 09:11:51;;;;;;;;;45.75;40.50;;;;;;;;5049562;28;45439;-64
2022/12/12 09:14:16;;;;;;;;;49.75;38.50;;;;;;;;5052843;28;45544;-65
2022/12/12 09:16:41;;;;;;;;;41.25;33.00;;;;;;;;5057437;28;46207;-65
2022/12/12 09:19:06;;;;;;;;;42.50;32.75;;;;;;;;5048009;28;45690;-64
2022/12/12 09:21:32;;;;;;;;;38.75;28.00;;;;;;;;5044637;28;45354;-66
2022/12/12 09:23:57;;;;;;;;;43.50;34.50;;;;;;;;5040318;28;45601;-65
2022/12/12 09:26:22;;;;;;;;;52.75;39.50;;;;;;;;5054643;28;47029;-64
2022/12/12 09:28:48;;;;;;;;;43.50;36.50;;;;;;;;5038690;28;45355;-65
2022/12/12 09:31:13;;;;;;;;;57.50;40.50;;;;;;;;5047712;28;45393;-64
2022/12/12 09:33:39;;;;;;;;;50.50;41.25;;;;;;;;5041440;28;45481;-64
2022/12/12 09:36:05;;;;;;;;;56.50;38.25;;;;;;;;5053849;28;46187;-64
2022/12/12 09:38:31;;;;;;;;;45.50;41.00;;;;;;;;5042440;28;45373;-65
2022/12/12 09:41:01;;;;;;;;;41.75;38.00;;;;;;;;5038667;28;45410;-65
2022/12/12 09:43:29;;;;;;;;;46.50;40.25;;;;;;;;5050497;28;45370;-64
2022/12/12 09:45:54;;;;;;;;;48.00;38.25;;;;;;;;5046494;28;46401;-65
2022/12/12 09:48:26;;;;;;;;;46.00;41.00;;;;;;;;5038508;28;45414;-65
2022/12/12 09:50:52;;;;;;;;;48.50;37.00;;;;;;;;5047792;28;45347;-65
2022/12/12 09:53:18;;;;;;;;;49.00;40.50;;;;;;;;5044696;28;45453;-65
2022/12/12 09:55:44;;;;;;;;;51.00;38.00;;;;;;;;5041658;28;46327;-65
2022/12/12 09:58:12;;;;;;;;;43.00;37.00;;;;;;;;5042658;28;45314;-65
2022/12/12 10:00:41;;;;;;;;;50.25;38.00;;;;;;;;5054517;28;45551;-64
2022/12/12 10:03:15;;;;;;;;;47.75;39.75;;;;;;;;5053576;28;45370;-66
2022/12/12 10:05:49;;;;;;;;;49.25;40.75;;;;;;;;5046765;28;45516;-66
2022/12/12 10:08:27;;;;;;;;;49.25;41.00;;;;;;;;5049192;28;45327;-66
2022/12/12 10:10:58;;;;;;;;;47.25;40.25;;;;;;;;5056824;28;45350;-66
2022/12/12 10:13:27;;;;;;;;;54.75;40.50;;;;;;;;5053199;28;45477;-66
2022/12/12 10:15:55;;;;;;;;;39.75;32.75;;;;;;;;5045420;28;46415;-65
2022/12/12 10:18:29;;;;;;;;;45.50;37.25;;;;;;;;5042635;28;45351;-66
2022/12/12 10:20:56;;;;;;;;;51.75;39.50;;;;;;;;5049753;28;45556;-66
2022/12/12 10:23:26;;;;;;;;;44.50;38.00;;;;;;;;5044025;28;45552;-65
2022/12/12 10:25:55;;;;;;;;;54.75;40.25;;;;;;;;5042576;28;46398;-64
2022/12/12 10:28:22;;;;;;;;;41.25;33.25;;;;;;;;5053971;28;45429;-64
2022/12/12 10:30:56;;;;;;;;;45.75;37.50;;;;;;;;5046503;28;45342;-65
2022/12/12 10:33:41;;;;;;;;;51.75;41.00;;;;;;;;5043796;28;45357;-65
2022/12/12 10:36:25;;;;;;;;;54.25;38.75;;;;;;;;5045095;28;46218;-66
2022/12/12 10:38:55;;;;;;;;;44.75;36.50;;;;;;;;5052036;28;45303;-65
2022/12/12 10:41:40;;;;;;;;;41.00;37.25;;;;;;;;5047149;28;45334;-65
2022/12/12 10:44:11;;;;;;;;;41.25;36.75;;;;;;;;5045427;28;45678;-65
2022/12/12 10:46:59;;;;;;;;;50.75;39.25;;;;;;;;5039712;28;46288;-66
2022/12/12 10:49:24;;;;;;;;;84.75;62.00;;;;;;;;5037642;28;45256;-65
2022/12/12 10:51:50;;;;;;;;;59.75;40.25;;;;;;;;5039236;28;45397;-65
2022/12/12 10:54:17;;;;;;;;;38.50;30.00;;;;;;;;5043463;28;45522;-65
2022/12/12 10:57:01;;;;;;;;;60.00;39.00;;;;;;;;5048566;28;46533;-65
2022/12/12 10:59:27;;;;;;;;;50.50;38.00;;;;;;;;5053794;28;45368;-66
2022/12/12 11:01:59;;;;;;;;;49.75;39.00;;;;;;;;5050650;28;45363;-66
2022/12/12 11:04:26;;;;;;;;;48.25;40.25;;;;;;;;5058339;28;45622;-66
2022/12/12 11:06:52;;;;;;;;;50.00;38.25;;;;;;;;5049122;28;46415;-65
2022/12/12 11:09:19;;;;;;;;;49.25;38.50;;;;;;;;5053999;28;45410;-65
2022/12/12 11:12:09;;;;;;;;;40.25;34.75;;;;;;;;5043876;28;45378;-64
2022/12/12 11:14:37;;;;;;;;;57.50;38.75;;;;;;;;5043583;28;45358;-65
2022/12/12 11:17:21;;;;;;;;;43.75;34.50;;;;;;;;5048119;28;45358;-65
2022/12/12 11:19:47;;;;;;;;;54.75;39.50;;;;;;;;5048381;28;45469;-64
2022/12/12 11:22:12;;;;;;;;;42.75;37.00;;;;;;;;5054949;28;45546;-64
2022/12/12 11:24:40;;;;;;;;;43.25;36.25;;;;;;;;5051462;28;45492;-64
2022/12/12 11:27:06;;;;;;;;;45.75;38.50;;;;;;;;5057979;28;45599;-66
2022/12/12 11:29:45;;;;;;;;;56.50;41.50;;;;;;;;5053459;28;45311;-66
2022/12/12 11:32:15;;;;;;;;;50.50;37.50;;;;;;;;5041560;28;45680;-66
2022/12/12 11:34:43;;;;;;;;;37.25;36.00;;;;;;;;5056133;28;45480;-66
2022/12/12 11:37:13;;;;;;;;;45.75;38.50;;;;;;;;5054488;28;45356;-66
2022/12/12 11:39:43;;;;;;;;;41.00;35.25;;;;;;;;5041609;28;45896;-66
2022/12/12 11:42:11;;;;;;;;;50.00;38.75;;;;;;;;5054564;28;45487;-65
2022/12/12 11:44:37;;;;;;;;;40.50;35.00;;;;;;;;5051251;28;45414;-64
2022/12/12 11:47:17;;;;;;;;;36.00;33.50;;;;;;;;5049137;28;45476;-65
2022/12/12 11:49:46;;;;;;;;;50.75;40.00;;;;;;;;5056742;28;45605;-64
2022/12/12 11:52:38;;;;;;;;;41.50;36.00;;;;;;;;5048531;28;45414;-65
2022/12/12 11:55:05;;;;;;;;;37.50;33.50;;;;;;;;5054193;28;45416;-64
2022/12/12 11:57:40;;;;;;;;;46.25;36.00;;;;;;;;5053313;28;46605;-65
2022/12/12 12:00:14;;;;;;;;;52.25;37.00;;;;;;;;5049997;28;45162;-65
2022/12/12 12:02:48;;;;;;;;;48.25;38.50;;;;;;;;5039971;28;45355;-65
2022/12/12 12:05:13;;;;;;;;;52.75;40.25;;;;;;;;5054639;28;45412;-65
2022/12/12 12:07:54;;;;;;;;;49.50;36.25;;;;;;;;5057216;28;45739;-65
2022/12/12 12:10:19;;;;;;;;;53.50;41.75;;;;;;;;5044716;28;45477;-65
2022/12/12 12:12:47;;;;;;;;;52.25;37.00;;;;;;;;5057617;28;45350;-65
2022/12/12 12:15:18;;;;;;;;;48.75;39.75;;;;;;;;5047552;28;45346;-65
2022/12/12 12:17:46;;;;;;;;;46.75;38.50;;;;;;;;5044375;28;45854;-65
2022/12/12 12:20:22;;;;;;;;;50.25;37.00;;;;;;;;5056462;28;45224;-65
2022/12/12 12:22:53;;;;;;;;;46.25;39.25;;;;;;;;5049953;28;45284;-65
2022/12/12 12:25:21;;;;;;;;;45.25;39.00;;;;;;;;5050063;28;45308;-65
2022/12/12 12:28:01;;;;;;;;;47.75;38.25;;;;;;;;5045971;28;45502;-65
2022/12/12 12:30:38;;;;;;;;;55.75;39.50;;;;;;;;5043485;28;45513;-66
2022/12/12 12:33:04;;;;;;;;;47.75;41.00;;;;;;;;5050880;28;45414;-63
2022/12/12 12:35:31;;;;;;;;;43.25;37.00;;;;;;;;5043669;28;45838;-63
2022/12/12 12:38:16;;;;;;;;;47.50;37.75;;;;;;;;5042483;28;46250;-63
2022/12/12 12:40:51;;;;;;;;;47.00;37.00;;;;;;;;5052493;28;45429;-65
2022/12/12 12:43:22;;;;;;;;;43.00;35.25;;;;;;;;5048142;28;45826;-63
2022/12/12 12:45:50;;;;;;;;;48.00;39.75;;;;;;;;5042243;28;45360;-63
2022/12/12 12:48:22;;;;;;;;;40.75;36.25;;;;;;;;5051619;28;46061;-63
2022/12/12 12:50:52;;;;;;;;;39.50;36.25;;;;;;;;5046272;28;45372;-63
2022/12/12 12:53:39;;;;;;;;;48.50;39.75;;;;;;;;5046110;28;45621;-63
2022/12/12 12:56:27;;;;;;;;;45.25;38.00;;;;;;;;5050981;28;45303;-63
2022/12/12 12:58:55;;;;;;;;;46.33;34.33;;;;;;;;5048294;28;46525;-63
2022/12/12 13:01:24;;;;;;;;;42.67;35.00;;;;;;;;5040522;28;45620;-63
2022/12/12 13:03:54;;;;;;;;;45.50;36.75;;;;;;;;5043111;28;45419;-64
2022/12/12 13:06:24;;;;;;;;;54.75;40.50;;;;;;;;5045425;28;45412;-63
2022/12/12 13:08:56;;;;;;;;;43.25;36.00;;;;;;;;5050589;28;45492;-63
2022/12/12 13:11:37;;;;;;;;;51.25;34.75;;;;;;;;5058225;28;45544;-63
2022/12/12 13:14:19;;;;;;;;;48.25;38.25;;;;;;;;5050822;28;45365;-63
2022/12/12 13:16:45;;;;;;;;;47.75;37.25;;;;;;;;5040872;28;45586;-63
2022/12/12 13:19:34;;;;;;;;;49.50;37.25;;;;;;;;5052270;28;46348;-63
2022/12/12 13:22:03;;;;;;;;;44.00;37.00;;;;;;;;5041067;28;45453;-63
2022/12/12 13:24:43;;;;;;;;;39.75;33.00;;;;;;;;5045485;28;45469;-63
2022/12/12 13:27:19;;;;;;;;;52.25;35.25;;;;;;;;5045305;28;45449;-64
2022/12/12 13:30:02;;;;;;;;;52.25;36.25;;;;;;;;5052261;28;47111;-63
2022/12/12 13:32:33;;;;;;;;;50.75;38.25;;;;;;;;5052413;28;46006;-64
2022/12/12 13:35:03;;;;;;;;;44.50;38.00;;;;;;;;5056353;28;45450;-64
2022/12/12 13:37:31;;;;;;;;;43.25;35.25;;;;;;;;5048228;28;45479;-65
2022/12/12 13:39:58;;;;;;;;;53.00;39.00;;;;;;;;5047013;28;46357;-65
2022/12/12 13:42:23;;;;;;;;;51.50;37.25;;;;;;;;5053408;28;45323;-65
2022/12/12 13:44:49;;;;;;;;;48.00;37.50;;;;;;;;5042191;28;45422;-65
2022/12/12 13:47:17;;;;;;;;;44.50;37.25;;;;;;;;5051055;28;45549;-64
2022/12/12 13:49:50;;;;;;;;;42.75;33.75;;;;;;;;5053013;28;46281;-65
2022/12/12 13:52:20;;;;;;;;;47.25;36.75;;;;;;;;5052015;28;45527;-65
2022/12/12 13:54:46;;;;;;;;;38.25;32.50;;;;;;;;5050296;28;45526;-65
2022/12/12 13:57:12;;;;;;;;;50.75;42.00;;;;;;;;5044348;28;45272;-65
2022/12/12 13:59:53;;;;;;;;;42.25;37.00;;;;;;;;5052864;28;46149;-63
2022/12/12 14:02:27;;;;;;;;;39.75;35.75;;;;;;;;5050741;28;45380;-64
2022/12/12 14:05:09;;;;;;;;;53.25;38.00;;;;;;;;5048932;28;45336;-64
2022/12/12 14:07:35;;;;;;;;;46.50;34.75;;;;;;;;5050375;28;45410;-64
2022/12/12 14:10:13;;;;;;;;;56.50;39.25;;;;;;;;5052051;28;46341;-64
2022/12/12 14:12:39;;;;;;;;;54.25;39.00;;;;;;;;5045154;28;45986;-64
2022/12/12 14:15:06;;;;;;;;;48.00;35.75;;;;;;;;5055771;28;45640;-64
2022/12/12 14:17:33;;;;;;;;;51.25;37.25;;;;;;;;5047444;28;45378;-64
2022/12/12 14:19:59;;;;;;;;;49.00;40.00;;;;;;;;5050337;28;46367;-65
2022/12/12 14:22:44;;;;;;;;;55.50;39.00;;;;;;;;5049374;28;45432;-65
2022/12/12 14:25:16;;;;;;;;;53.25;39.50;;;;;;;;5022946;28;45530;-65
2022/12/12 14:27:47;;;;;;;;;42.75;35.50;;;;;;;;5050114;28;45542;-65
2022/12/12 14:30:21;;;;;;;;;34.75;34.75;;;;;;;;5050211;28;46001;-65
2022/12/12 14:32:55;;;;;;;;;48.00;38.50;;;;;;;;5044344;28;45320;-65
2022/12/12 14:35:27;;;;;;;;;41.25;36.25;;;;;;;;5048153;28;45447;-65
2022/12/12 14:38:03;;;;;;;;;48.50;34.00;;;;;;;;5052439;28;45311;-65
2022/12/12 14:40:31;;;;;;;;;46.50;39.00;;;;;;;;5057203;28;45255;-65
2022/12/12 14:42:56;;;;;;;;;44.50;33.25;;;;;;;;5046903;28;45556;-65
2022/12/12 14:45:29;;;;;;;;;42.75;37.00;;;;;;;;5046111;28;45450;-65
2022/12/12 14:48:27;;;;;;;;;37.50;30.50;;;;;;;;5050095;28;45356;-65
2022/12/12 14:50:55;;;;;;;;;37.75;32.75;;;;;;;;5007090;28;45694;-65
2022/12/12 14:53:22;;;;;;;;;42.25;33.75;;;;;;;;5042912;28;45370;-65
2022/12/12 14:55:49;;;;;;;;;38.25;33.50;;;;;;;;5049531;28;45336;-65
2022/12/12 14:58:16;;;;;;;;;42.00;34.75;;;;;;;;5058536;28;45561;-65
2022/12/12 15:00:49;;;;;;;;;51.50;39.25;;;;;;;;5049946;28;45413;-64
2022/12/12 15:03:20;;;;;;;;;41.00;39.00;;;;;;;;5042711;28;45693;-65
2022/12/12 15:05:45;;;;;;;;;37.25;32.75;;;;;;;;5050432;28;45564;-65
2022/12/12 15:08:18;;;;;;;;;34.50;32.50;;;;;;;;5044778;28;45720;-65
2022/12/12 15:10:43;;;;;;;;;44.00;37.00;;;;;;;;5058911;28;45560;-65
2022/12/12 15:13:15;;;;;;;;;34.00;31.25;;;;;;;;5054031;28;45577;-65
2022/12/12 15:15:41;;;;;;;;;41.75;33.25;;;;;;;;5046510;28;45452;-65
2022/12/12 15:18:08;;;;;;;;;40.00;37.00;;;;;;;;5057063;28;46750;-65
2022/12/12 15:20:34;;;;;;;;;43.75;34.00;;;;;;;;5047108;28;46145;-65
2022/12/12 15:22:59;;;;;;;;;41.50;33.75;;;;;;;;5059404;28;45426;-65
2022/12/12 15:25:41;;;;;;;;;46.50;36.00;;;;;;;;5050521;28;45492;-65
2022/12/12 15:28:13;;;;;;;;;45.50;36.25;;;;;;;;5048085;28;45263;-65
2022/12/12 15:30:43;;;;;;;;;34.75;31.25;;;;;;;;5044281;28;46534;-64
2022/12/12 15:33:16;;;;;;;;;46.00;35.25;;;;;;;;5052785;28;45438;-64
2022/12/12 15:35:52;;;;;;;;;44.75;37.25;;;;;;;;5041177;28;45327;-58
2022/12/12 15:38:17;;;;;;;;;36.75;33.50;;;;;;;;5053808;28;45235;-58
2022/12/12 15:40:46;;;;;;;;;50.50;34.75;;;;;;;;5040536;28;45650;-58
2022/12/12 15:43:17;;;;;;;;;44.50;32.75;;;;;;;;5040565;28;45289;-58
2022/12/12 15:45:48;;;;;;;;;41.00;34.50;;;;;;;;5049531;28;45365;-58
2022/12/12 15:48:17;;;;;;;;;48.75;34.25;;;;;;;;5057117;28;45306;-57
2022/12/12 15:50:42;;;;;;;;;40.00;36.75;;;;;;;;5056529;28;46149;-58
2022/12/12 15:53:13;;;;;;;;;50.75;39.50;;;;;;;;5053618;28;45824;-58
2022/12/12 15:55:45;;;;;;;;;47.00;34.00;;;;;;;;5057178;28;45476;-58
2022/12/12 15:58:19;;;;;;;;;45.00;35.00;;;;;;;;5042717;28;45362;-58
2022/12/12 16:00:45;;;;;;;;;50.00;36.50;;;;;;;;5054284;28;46229;-58
2022/12/12 16:03:10;;;;;;;;;42.00;34.25;;;;;;;;5054192;28;45468;-58
2022/12/12 16:05:36;;;;;;;;;43.25;34.75;;;;;;;;5055470;28;45338;-58
2022/12/12 16:08:20;;;;;;;;;48.25;37.75;;;;;;;;5051187;28;45464;-58
2022/12/12 16:10:51;;;;;;;;;37.75;32.00;;;;;;;;5052932;28;47506;-58
2022/12/12 16:13:17;;;;;;;;;46.50;33.00;;;;;;;;5058359;28;45490;-58
2022/12/12 16:15:42;;;;;;;;;43.25;34.75;;;;;;;;5049219;28;46122;-58
2022/12/12 16:18:13;;;;;;;;;41.50;36.25;;;;;;;;5049646;28;45397;-58
2022/12/12 16:20:44;;;;;;;;;43.00;36.00;;;;;;;;5045086;28;45480;-58
2022/12/12 16:23:17;;;;;;;;;55.50;34.50;;;;;;;;5044720;28;45628;-58
2022/12/12 16:25:42;;;;;;;;;30.50;27.50;;;;;;;;5050779;28;45427;-57
2022/12/12 16:28:08;;;;;;;;;45.50;38.50;;;;;;;;5058560;28;45642;-59
2022/12/12 16:30:34;;;;;;;;;36.25;35.25;;;;;;;;5048151;28;46346;-59
2022/12/12 16:33:22;;;;;;;;;40.75;32.50;;;;;;;;5040719;28;45437;-59
2022/12/12 16:35:48;;;;;;;;;42.25;35.25;;;;;;;;5049672;28;45646;-58
2022/12/12 16:38:14;;;;;;;;;37.25;32.25;;;;;;;;5045322;28;45518;-60
2022/12/12 16:40:40;;;;;;;;;35.00;29.50;;;;;;;;5048890;28;45527;-57
2022/12/12 16:43:05;;;;;;;;;43.75;33.50;;;;;;;;5047079;28;45468;-57
2022/12/12 16:45:30;;;;;;;;;37.50;29.50;;;;;;;;5045896;28;45402;-56
2022/12/12 16:47:57;;;;;;;;;35.25;27.00;;;;;;;;5056095;28;45776;-56
2022/12/12 16:50:22;;;;;;;;;34.75;31.25;;;;;;;;5047193;28;46155;-56
2022/12/12 16:52:47;;;;;;;;;40.25;35.75;;;;;;;;5043192;28;45441;-57
2022/12/12 16:55:19;;;;;;;;;48.00;38.50;;;;;;;;5050505;28;45493;-56
2022/12/12 16:57:45;;;;;;;;;32.50;27.50;;;;;;;;5053505;28;45564;-56
2022/12/12 17:00:10;;;;;;;;;37.50;33.25;;;;;;;;5051124;28;45877;-56
2022/12/12 17:02:36;;;;;;;;;39.50;31.50;;;;;;;;5050969;28;45437;-56
2022/12/12 17:05:01;;;;;;;;;37.00;29.00;;;;;;;;5047661;28;45963;-56
2022/12/12 17:07:26;;;;;;;;;38.50;29.00;;;;;;;;5052616;28;45747;-56
2022/12/12 17:09:51;;;;;;;;;44.25;38.50;;;;;;;;5052260;28;45500;-57
2022/12/12 17:12:17;;;;;;;;;46.00;34.00;;;;;;;;5052607;28;45614;-57
2022/12/12 17:14:42;;;;;;;;;38.75;33.00;;;;;;;;5051543;28;45437;-57
2022/12/12 17:17:07;;;;;;;;;49.25;36.75;;;;;;;;5048360;28;45363;-56
2022/12/12 17:19:32;;;;;;;;;52.75;37.50;;;;;;;;5052018;28;45550;-56
2022/12/12 17:21:58;;;;;;;;;37.50;32.75;;;;;;;;5051040;28;45712;-56
2022/12/12 17:24:23;;;;;;;;;42.75;36.00;;;;;;;;5041136;28;46065;-55
2022/12/12 17:26:48;;;;;;;;;46.50;36.50;;;;;;;;5050468;28;45560;-57
2022/12/12 17:29:13;;;;;;;;;34.75;29.75;;;;;;;;5054204;28;46060;-56
2022/12/12 17:31:38;;;;;;;;;32.25;28.75;;;;;;;;5051678;28;45464;-57
2022/12/12 17:34:04;;;;;;;;;32.50;31.00;;;;;;;;5056307;28;46200;-55
2022/12/12 17:36:29;;;;;;;;;38.25;29.75;;;;;;;;5051464;28;46745;-57
2022/12/12 17:38:54;;;;;;;;;43.00;35.00;;;;;;;;5044237;28;45585;-56
2022/12/12 17:41:19;;;;;;;;;35.50;30.25;;;;;;;;5052728;28;45449;-58
2022/12/12 17:43:45;;;;;;;;;44.75;38.25;;;;;;;;5044978;28;45342;-53
2022/12/12 17:46:12;;;;;;;;;41.25;36.00;;;;;;;;5047468;28;45676;-56
2022/12/12 17:48:38;;;;;;;;;50.00;39.50;;;;;;;;5052681;28;46063;-58
2022/12/12 17:51:04;;;;;;;;;50.50;41.75;;;;;;;;5052007;28;45213;-58
2022/12/12 17:53:31;;;;;;;;;57.50;39.25;;;;;;;;5048576;28;45248;-58
2022/12/12 17:55:56;;;;;;;;;44.00;39.50;;;;;;;;5043864;28;45514;-58
2022/12/12 17:58:21;;;;;;;;;36.50;34.50;;;;;;;;5043358;28;45612;-58
2022/12/12 18:00:47;;;;;;;;;47.00;37.75;;;;;;;;5054029;28;45422;-59
2022/12/12 18:03:12;;;;;;;;;52.25;37.00;;;;;;;;5051261;28;45406;-58
2022/12/12 18:05:37;;;;;;;;;45.50;30.75;;;;;;;;5046237;28;45440;-58
2022/12/12 18:08:02;;;;;;;;;53.25;42.50;;;;;;;;5050245;28;45973;-58
2022/12/12 18:10:27;;;;;;;;;57.75;39.75;;;;;;;;5054152;28;45483;-59
2022/12/12 18:12:53;;;;;;;;;50.00;41.00;;;;;;;;5054996;28;45455;-58
2022/12/12 18:15:18;;;;;;;;;47.00;37.25;;;;;;;;5051354;28;45442;-58
2022/12/12 18:17:43;;;;;;;;;51.25;42.50;;;;;;;;5048309;28;46039;-58
2022/12/12 18:20:09;;;;;;;;;56.50;43.75;;;;;;;;5050428;28;45394;-58
2022/12/12 18:22:34;;;;;;;;;56.25;41.50;;;;;;;;5049819;28;45295;-58
2022/12/12 18:24:59;;;;;;;;;60.75;39.25;;;;;;;;5053343;28;45484;-58
2022/12/12 18:27:24;;;;;;;;;56.50;40.50;;;;;;;;5048624;28;46560;-58
2022/12/12 18:29:49;;;;;;;;;62.25;40.75;;;;;;;;5067378;28;45323;-58
2022/12/12 18:32:15;;;;;;;;;47.25;38.75;;;;;;;;5051559;28;45742;-58
2022/12/12 18:34:41;;;;;;;;;49.75;40.75;;;;;;;;5048010;27;45513;-59
2022/12/12 18:37:06;;;;;;;;;47.50;37.50;;;;;;;;5041100;28;46963;-59
2022/12/12 18:39:31;;;;;;;;;41.00;35.50;;;;;;;;5041494;28;45613;-60
2022/12/12 18:41:56;;;;;;;;;56.00;39.50;;;;;;;;5055654;28;45566;-59
2022/12/12 18:44:22;;;;;;;;;51.50;38.50;;;;;;;;5043460;28;45642;-60
2022/12/12 18:46:49;;;;;;;;;50.50;42.25;;;;;;;;5050736;28;45796;-60
2022/12/12 18:49:17;;;;;;;;;52.25;41.00;;;;;;;;5047909;28;45497;-60
2022/12/12 18:51:42;;;;;;;;;50.00;41.50;;;;;;;;5053195;28;45457;-60
2022/12/12 18:54:09;;;;;;;;;59.25;48.00;;;;;;;;5044933;28;45304;-60
2022/12/12 18:56:35;;;;;;;;;61.25;43.50;;;;;;;;5055196;28;45625;-60
2022/12/12 18:59:00;;;;;;;;;61.25;42.50;;;;;;;;5042176;28;45316;-60
2022/12/12 19:01:27;;;;;;;;;52.50;40.75;;;;;;;;5050942;28;45476;-60
2022/12/12 19:03:55;;;;;;;;;61.50;47.00;;;;;;;;5050328;28;45402;-60
2022/12/12 19:06:22;;;;;;;;;55.75;45.00;;;;;;;;5054893;28;46383;-60
2022/12/12 19:08:47;;;;;;;;;59.00;44.00;;;;;;;;5049913;28;45461;-60
2022/12/12 19:11:12;;;;;;;;;60.00;45.00;;;;;;;;5054447;28;45731;-60
2022/12/12 19:13:38;;;;;;;;;59.00;46.75;;;;;;;;5043262;28;45517;-60
2022/12/12 19:16:04;;;;;;;;;67.00;45.50;;;;;;;;5042736;28;46135;-60
2022/12/12 19:18:29;;;;;;;;;64.50;42.50;;;;;;;;5043659;28;45504;-60
2022/12/12 19:20:55;;;;;;;;;71.50;47.75;;;;;;;;5045155;28;45459;-61
2022/12/12 19:23:20;;;;;;;;;65.25;45.25;;;;;;;;5048010;28;45454;-60
2022/12/12 19:25:45;;;;;;;;;59.25;43.75;;;;;;;;5044492;28;46354;-59
2022/12/12 19:28:11;;;;;;;;;62.00;46.25;;;;;;;;5048963;28;45314;-60
2022/12/12 19:30:38;;;;;;;;;62.25;44.00;;;;;;;;5046563;28;45276;-59
2022/12/12 19:33:03;;;;;;;;;53.00;42.25;;;;;;;;5044326;28;45446;-61
2022/12/12 19:35:29;;;;;;;;;56.25;43.00;;;;;;;;5047238;28;46194;-61
2022/12/12 19:37:54;;;;;;;;;55.75;42.25;;;;;;;;5055392;28;45492;-60
2022/12/12 19:40:19;;;;;;;;;51.00;42.75;;;;;;;;5061746;28;45421;-61
2022/12/12 19:42:44;;;;;;;;;50.25;43.75;;;;;;;;5053030;28;45392;-61
2022/12/12 19:45:09;;;;;;;;;58.00;43.50;;;;;;;;5044872;28;46111;-61
2022/12/12 19:47:35;;;;;;;;;51.50;36.00;;;;;;;;5054067;28;45492;-61
2022/12/12 19:50:00;;;;;;;;;51.25;39.00;;;;;;;;5064722;28;45504;-61
2022/12/12 19:52:25;;;;;;;;;48.00;39.00;;;;;;;;5046690;28;45216;-62
2022/12/12 19:54:50;;;;;;;;;48.75;41.50;;;;;;;;5055252;28;46393;-61